Time;durP1;ratioP1;P1;durP2;ratioP2;P2;SDS_P1;SDS_P2;PMS_P1;PMS_P2;Temp;Humidity;BMP_temperature;BMP_pressure;BME280_temperature;BME280_humidity;BME280_pressure;Samples;Min_cycle;Max_cycle;Signal;HPM_P1;HPM_P2
2021/03/29 00:01:05;;;;;;;3.07;2.23;;;7.90;99.90;;;;;;5058214;28;20442;-85
2021/03/29 00:03:32;;;;;;;4.00;2.13;;;7.70;99.90;;;;;;5067122;28;20453;-85
2021/03/29 00:05:58;;;;;;;2.60;2.03;;;7.60;99.90;;;;;;5063646;28;20450;-85
2021/03/29 00:08:30;;;;;;;3.77;2.27;;;7.60;99.90;;;;;;5061547;28;20465;-85
2021/03/29 00:10:59;;;;;;;3.83;2.57;;;7.60;99.90;;;;;;5064471;28;20992;-84
2021/03/29 00:13:28;;;;;;;3.70;2.63;;;7.60;99.90;;;;;;5064860;28;20478;-85
2021/03/29 00:15:56;;;;;;;4.93;1.83;;;7.60;99.90;;;;;;5065118;28;20442;-85
2021/03/29 00:18:24;;;;;;;4.73;2.20;;;8.00;99.90;;;;;;5063925;28;20438;-85
2021/03/29 00:20:54;;;;;;;5.37;2.40;;;7.40;99.90;;;;;;5082317;28;20473;-85
2021/03/29 00:23:22;;;;;;;3.57;2.27;;;7.30;99.90;;;;;;5080382;28;20448;-85
2021/03/29 00:25:48;;;;;;;6.83;2.80;;;7.30;99.90;;;;;;5081909;28;20449;-85
2021/03/29 00:28:15;;;;;;;5.27;2.63;;;7.30;99.90;;;;;;5081663;28;20445;-85
2021/03/29 00:30:45;;;;;;;4.60;1.93;;;7.20;99.90;;;;;;5087117;28;20446;-85
2021/03/29 00:33:12;;;;;;;2.43;1.50;;;7.10;99.90;;;;;;5082668;28;20505;-85
2021/03/29 00:35:43;;;;;;;8.10;2.47;;;7.10;99.90;;;;;;5086842;28;20445;-85
2021/03/29 00:38:11;;;;;;;4.40;2.57;;;7.00;99.90;;;;;;5085461;28;20816;-85
2021/03/29 00:40:39;;;;;;;4.07;2.30;;;7.00;99.90;;;;;;5081715;28;20449;-84
2021/03/29 00:43:11;;;;;;;4.53;2.37;;;6.90;99.90;;;;;;5083531;28;20450;-85
2021/03/29 00:45:38;;;;;;;4.20;1.77;;;6.80;99.90;;;;;;5032155;28;20452;-85
2021/03/29 00:48:05;;;;;;;3.10;1.73;;;6.80;99.90;;;;;;5088384;28;20449;-86
2021/03/29 00:50:39;;;;;;;2.13;1.93;;;6.70;99.90;;;;;;5086391;28;20441;-85
2021/03/29 00:53:07;;;;;;;5.07;2.10;;;6.60;99.90;;;;;;5085606;28;20522;-85
2021/03/29 00:55:33;;;;;;;3.43;2.10;;;6.60;99.90;;;;;;5084065;28;20446;-85
2021/03/29 00:58:00;;;;;;;2.60;2.10;;;6.60;99.90;;;;;;5084526;28;20794;-85
2021/03/29 01:00:36;;;;;;;2.50;1.93;;;6.50;99.90;;;;;;5080506;28;20445;-85
2021/03/29 01:03:07;;;;;;;3.40;2.00;;;6.50;99.90;;;;;;5082568;28;20445;-85
2021/03/29 01:05:34;;;;;;;3.87;2.13;;;6.30;99.90;;;;;;5086093;28;20539;-85
2021/03/29 01:08:00;;;;;;;4.00;2.00;;;6.40;99.90;;;;;;5080196;28;20441;-85
2021/03/29 01:10:28;;;;;;;2.63;1.73;;;6.30;99.90;;;;;;5082461;28;20438;-85
2021/03/29 01:13:03;;;;;;;4.27;2.30;;;6.20;99.90;;;;;;5077988;28;21013;-85
2021/03/29 01:15:30;;;;;;;6.90;2.50;;;6.20;99.90;;;;;;5020553;28;20483;-85
2021/03/29 01:17:57;;;;;;;4.80;1.97;;;6.00;99.90;;;;;;5021407;28;20483;-85
2021/03/29 01:20:34;;;;;;;5.73;1.97;;;6.10;99.90;;;;;;5021940;28;20808;-84
2021/03/29 01:23:02;;;;;;;2.43;1.80;;;6.00;99.90;;;;;;5024426;28;20444;-86
2021/03/29 01:25:39;;;;;;;3.90;2.10;;;5.90;99.90;;;;;;5046200;22;20489;-85
2021/03/29 01:28:09;;;;;;;5.40;2.30;;;5.80;99.90;;;;;;5075593;23;20478;-85
2021/03/29 01:30:37;;;;;;;4.63;2.37;;;5.80;99.90;;;;;;5085224;23;20498;-85
2021/03/29 01:33:07;;;;;;;4.47;2.67;;;5.70;99.90;;;;;;5066111;28;20454;-85
2021/03/29 01:35:35;;;;;;;3.60;2.53;;;5.70;99.90;;;;;;5066879;28;20453;-84
2021/03/29 01:38:03;;;;;;;4.73;2.20;;;5.60;99.90;;;;;;5068116;28;20431;-85
2021/03/29 01:40:33;;;;;;;2.90;2.20;;;5.60;99.90;;;;;;5066503;28;20437;-84
2021/03/29 01:42:59;;;;;;;3.60;2.47;;;5.50;99.90;;;;;;5066407;28;20439;-85
2021/03/29 01:45:27;;;;;;;4.00;2.90;;;5.50;99.90;;;;;;5066402;28;20450;-85
2021/03/29 01:47:54;;;;;;;9.57;2.00;;;5.40;99.90;;;;;;5061092;28;20439;-85
2021/03/29 01:50:24;;;;;;;2.90;2.40;;;5.40;99.90;;;;;;5060528;28;20449;-84
2021/03/29 01:52:50;;;;;;;2.70;2.20;;;5.40;99.90;;;;;;5073317;23;20953;-85
2021/03/29 01:55:17;;;;;;;6.27;2.30;;;5.30;99.90;;;;;;5064543;28;20486;-85
2021/03/29 01:57:44;;;;;;;2.47;2.00;;;5.30;99.90;;;;;;5062818;28;20457;-84
2021/03/29 02:00:13;;;;;;;6.70;2.27;;;5.20;99.90;;;;;;5064611;28;20447;-85
2021/03/29 02:02:40;;;;;;;3.10;1.83;;;5.20;99.90;;;;;;5058467;28;20831;-85
2021/03/29 02:07:32;;;;;;;3.83;1.77;;;5.10;99.90;;;;;;5076076;23;20485;-85
2021/03/29 02:09:59;;;;;;;3.67;2.30;;;5.00;99.90;;;;;;5067135;23;20232;-84
2021/03/29 02:12:26;;;;;;;2.80;2.20;;;5.00;99.90;;;;;;5064957;28;20460;-84
2021/03/29 02:14:56;;;;;;;3.33;1.97;;;5.00;99.90;;;;;;5069044;23;20556;-85
2021/03/29 02:17:23;;;;;;;3.13;2.00;;;5.10;99.90;;;;;;5069709;23;20509;-85
2021/03/29 02:19:51;;;;;;;3.93;1.87;;;5.00;99.90;;;;;;5060694;28;20477;-84
2021/03/29 02:22:17;;;;;;;6.10;2.20;;;5.10;99.90;;;;;;5065650;28;20435;-84
2021/03/29 02:24:44;;;;;;;4.47;2.30;;;5.10;99.90;;;;;;5065087;28;20446;-85
2021/03/29 02:27:10;;;;;;;3.20;1.70;;;5.20;99.90;;;;;;5063499;28;20453;-84
2021/03/29 02:29:37;;;;;;;3.63;2.30;;;5.20;99.90;;;;;;5062494;28;20461;-85
2021/03/29 02:32:04;;;;;;;5.10;2.20;;;5.10;99.90;;;;;;5063785;28;20443;-85
2021/03/29 02:34:31;;;;;;;7.97;2.33;;;5.20;99.90;;;;;;5063540;28;20486;-84
2021/03/29 02:36:59;;;;;;;6.50;2.40;;;5.10;99.90;;;;;;5072636;23;20977;-84
2021/03/29 02:39:26;;;;;;;2.63;2.03;;;5.10;99.90;;;;;;5061091;28;20508;-85
2021/03/29 02:41:55;;;;;;;5.10;1.80;;;5.10;99.90;;;;;;5056293;23;20487;-85
2021/03/29 02:44:22;;;;;;;3.47;1.87;;;5.10;99.90;;;;;;5046436;28;20915;-85
2021/03/29 02:46:49;;;;;;;3.63;1.90;;;5.00;99.90;;;;;;5044590;28;20459;-86
2021/03/29 02:49:16;;;;;;;2.80;1.90;;;5.00;99.90;;;;;;5054374;23;20502;-84
2021/03/29 02:51:45;;;;;;;3.17;2.00;;;5.00;99.90;;;;;;5045038;28;20451;-86
2021/03/29 02:54:14;;;;;;;2.90;1.80;;;4.70;99.90;;;;;;5044879;28;20536;-84
2021/03/29 02:56:43;;;;;;;4.53;1.70;;;4.90;99.90;;;;;;5045561;28;20463;-85
2021/03/29 02:59:13;;;;;;;3.00;2.03;;;4.90;99.90;;;;;;5045280;28;20436;-85
2021/03/29 03:01:41;;;;;;;2.70;1.80;;;4.90;99.90;;;;;;5042453;28;20443;-84
2021/03/29 03:04:10;;;;;;;3.10;1.90;;;4.80;99.90;;;;;;5067153;23;20497;-85
2021/03/29 03:06:38;;;;;;;3.90;2.30;;;4.80;99.90;;;;;;5066708;23;20494;-85
2021/03/29 03:09:06;;;;;;;2.10;1.73;;;4.80;99.90;;;;;;5046166;28;20467;-85
2021/03/29 03:11:34;;;;;;;2.77;1.40;;;4.70;99.90;;;;;;5044815;28;20452;-87
2021/03/29 03:14:04;;;;;;;3.53;2.03;;;4.70;99.90;;;;;;5051588;23;21087;-85
2021/03/29 03:16:32;;;;;;;2.87;1.57;;;4.70;99.90;;;;;;5047283;23;20491;-85
2021/03/29 03:18:58;;;;;;;2.93;2.33;;;4.70;99.90;;;;;;5044239;28;20460;-85
2021/03/29 03:21:24;;;;;;;4.07;2.10;;;4.60;99.90;;;;;;5045109;28;20452;-85
2021/03/29 03:23:52;;;;;;;4.97;2.10;;;4.60;99.90;;;;;;5045017;28;20451;-84
2021/03/29 03:26:19;;;;;;;3.47;1.70;;;4.50;99.90;;;;;;5041220;28;20451;-84
2021/03/29 03:28:46;;;;;;;2.50;1.87;;;4.50;99.90;;;;;;5043738;28;20926;-85
2021/03/29 03:31:12;;;;;;;6.47;2.50;;;4.50;99.90;;;;;;5044891;28;20447;-85
2021/03/29 03:33:39;;;;;;;5.03;2.17;;;4.40;99.90;;;;;;5043099;28;21064;-85
2021/03/29 03:36:07;;;;;;;2.33;2.03;;;4.50;99.90;;;;;;5040815;28;20447;-85
2021/03/29 03:38:35;;;;;;;4.20;1.70;;;4.50;99.90;;;;;;5052662;23;20615;-84
2021/03/29 03:41:06;;;;;;;4.50;2.47;;;4.40;99.90;;;;;;5047702;28;20955;-85
2021/03/29 03:43:35;;;;;;;4.07;2.13;;;4.40;99.90;;;;;;5044999;28;20435;-85
2021/03/29 03:46:06;;;;;;;4.40;2.30;;;4.30;99.90;;;;;;5046611;28;20960;-85
2021/03/29 03:48:33;;;;;;;3.33;2.10;;;4.30;99.90;;;;;;5035251;28;20443;-84
2021/03/29 03:51:01;;;;;;;7.10;2.20;;;4.30;99.90;;;;;;5044518;28;20444;-84
2021/03/29 03:53:29;;;;;;;4.43;2.37;;;4.30;99.90;;;;;;5040226;28;20451;-84
2021/03/29 03:55:57;;;;;;;4.60;2.13;;;4.40;99.90;;;;;;5044744;28;20428;-85
2021/03/29 03:58:24;;;;;;;5.63;1.90;;;4.40;99.90;;;;;;5043204;28;20475;-85
2021/03/29 04:00:51;;;;;;;5.47;1.90;;;4.40;99.90;;;;;;5044714;28;20448;-85
2021/03/29 04:03:18;;;;;;;5.10;2.17;;;4.40;99.90;;;;;;5044761;28;20443;-84
2021/03/29 04:05:45;;;;;;;3.20;2.10;;;4.30;99.90;;;;;;5044514;28;20454;-84
2021/03/29 04:08:12;;;;;;;2.73;1.97;;;4.30;99.90;;;;;;5044740;28;20451;-85
2021/03/29 04:10:44;;;;;;;3.97;2.10;;;4.30;99.90;;;;;;5040037;28;20895;-85
2021/03/29 04:13:12;;;;;;;5.47;2.47;;;4.20;99.90;;;;;;5040786;28;20466;-85
2021/03/29 04:15:38;;;;;;;3.73;2.00;;;4.20;99.90;;;;;;5044065;28;20482;-85
2021/03/29 04:18:05;;;;;;;8.10;2.17;;;4.10;99.90;;;;;;5045434;28;20468;-85
2021/03/29 04:20:33;;;;;;;8.43;2.13;;;4.10;99.90;;;;;;5044407;28;20825;-85
2021/03/29 04:23:00;;;;;;;4.40;1.63;;;4.10;99.90;;;;;;5043221;28;20444;-84
2021/03/29 04:25:26;;;;;;;5.00;2.43;;;4.00;99.90;;;;;;5043422;28;20451;-85
2021/03/29 04:27:53;;;;;;;5.60;1.93;;;4.00;99.90;;;;;;5040863;28;20451;-85
2021/03/29 04:30:22;;;;;;;4.30;2.10;;;4.10;99.90;;;;;;5051369;23;20491;-85
2021/03/29 04:32:49;;;;;;;3.37;1.93;;;4.10;99.90;;;;;;5043468;28;20447;-85
2021/03/29 04:35:16;;;;;;;6.80;2.00;;;4.10;99.90;;;;;;5043169;28;20990;-85
2021/03/29 04:37:43;;;;;;;4.37;2.10;;;4.10;99.90;;;;;;5043699;28;20474;-84
2021/03/29 04:40:11;;;;;;;2.93;2.00;;;4.50;99.90;;;;;;5043419;28;20443;-85
2021/03/29 04:42:37;;;;;;;3.53;2.70;;;4.30;99.90;;;;;;5040749;28;20453;-84
2021/03/29 04:45:06;;;;;;;3.30;1.90;;;4.40;99.90;;;;;;5039714;28;20507;-85
2021/03/29 04:47:32;;;;;;;4.83;2.03;;;4.40;99.90;;;;;;5039002;28;20432;-85
2021/03/29 04:49:58;;;;;;;3.63;2.23;;;4.40;99.90;;;;;;5046862;28;20454;-85
2021/03/29 04:52:25;;;;;;;4.63;2.00;;;4.50;99.90;;;;;;5046740;28;20443;-85
2021/03/29 04:54:54;;;;;;;3.00;1.70;;;4.50;99.90;;;;;;5048043;28;20495;-85
2021/03/29 04:57:20;;;;;;;3.93;2.20;;;4.60;99.90;;;;;;5054190;23;20482;-85
2021/03/29 04:59:46;;;;;;;5.87;2.30;;;4.70;99.90;;;;;;5053432;23;20506;-85
2021/03/29 05:02:13;;;;;;;2.60;2.07;;;4.70;99.90;;;;;;5047318;28;20451;-85
2021/03/29 05:04:39;;;;;;;5.40;2.60;;;4.70;99.90;;;;;;5046416;28;20809;-85
2021/03/29 05:07:09;;;;;;;2.37;2.13;;;4.80;99.90;;;;;;5059952;23;20998;-85
2021/03/29 05:09:36;;;;;;;4.97;2.20;;;4.80;99.90;;;;;;5051484;28;20455;-84
2021/03/29 05:12:08;;;;;;;2.73;1.80;;;4.80;99.90;;;;;;5049020;28;20961;-85
2021/03/29 05:14:35;;;;;;;3.70;1.93;;;4.80;99.90;;;;;;5038846;28;20493;-85
2021/03/29 05:17:02;;;;;;;1.70;1.60;;;4.90;99.90;;;;;;5047289;28;20482;-85
2021/03/29 05:19:28;;;;;;;3.47;1.83;;;4.90;99.90;;;;;;5046731;28;20448;-85
2021/03/29 05:21:54;;;;;;;3.07;2.07;;;5.00;99.90;;;;;;5048325;28;20450;-85
2021/03/29 05:24:21;;;;;;;6.07;2.13;;;5.00;99.90;;;;;;5047688;28;20477;-85
2021/03/29 05:26:47;;;;;;;6.13;1.87;;;5.10;99.90;;;;;;5051261;28;21052;-85
2021/03/29 05:29:16;;;;;;;4.87;1.90;;;5.20;99.90;;;;;;5085643;23;20491;-85
2021/03/29 05:31:48;;;;;;;3.90;2.17;;;5.20;99.90;;;;;;5056818;23;20471;-85
2021/03/29 05:34:15;;;;;;;2.60;1.70;;;5.50;99.90;;;;;;5049804;23;20475;-85
2021/03/29 05:36:42;;;;;;;2.27;1.80;;;5.40;99.90;;;;;;5046490;28;20431;-85
2021/03/29 05:39:10;;;;;;;4.30;2.40;;;5.50;99.90;;;;;;5046087;28;20451;-85
2021/03/29 05:41:39;;;;;;;3.73;2.00;;;5.60;99.90;;;;;;5052979;23;20494;-91
2021/03/29 05:44:06;;;;;;;13.80;2.90;;;5.70;99.90;;;;;;5038306;28;20809;-87
2021/03/29 05:46:34;;;;;;;6.00;2.00;;;5.80;99.90;;;;;;5031303;28;20440;-91
2021/03/29 05:49:01;;;;;;;9.43;2.67;;;5.90;99.90;;;;;;5034684;28;20455;-91
2021/03/29 05:51:28;;;;;;;15.07;3.50;;;6.10;99.90;;;;;;5036131;28;20450;-92
2021/03/29 05:53:54;;;;;;;12.47;2.70;;;6.20;99.90;;;;;;5040699;28;20498;-92
2021/03/29 05:56:21;;;;;;;6.33;2.80;;;6.40;99.90;;;;;;5041976;28;20451;-92
2021/03/29 05:59:03;;;;;;;13.20;2.90;;;6.50;99.90;;;;;;5031934;28;20436;-92
2021/03/29 06:01:44;;;;;;;7.30;2.90;;;6.50;99.90;;;;;;5036396;28;20819;-87
2021/03/29 06:04:10;;;;;;;14.10;3.50;;;6.60;99.90;;;;;;5037397;28;20454;-90
2021/03/29 06:06:37;;;;;;;7.43;2.60;;;6.80;99.90;;;;;;5032469;28;20443;-85
2021/03/29 06:09:04;;;;;;;7.13;3.03;;;7.00;99.90;;;;;;5043091;28;20942;-85
2021/03/29 06:11:34;;;;;;;6.17;2.80;;;7.10;99.90;;;;;;5044677;28;20866;-85
2021/03/29 06:14:18;;;;;;;12.33;4.80;;;7.20;99.90;;;;;;5041793;28;20482;-85
2021/03/29 06:17:10;;;;;;;8.20;2.60;;;7.30;99.90;;;;;;5046379;28;20526;-85
2021/03/29 06:19:43;;;;;;;7.50;2.83;;;7.70;99.90;;;;;;5031086;28;20466;-84
2021/03/29 06:22:15;;;;;;;5.37;2.67;;;7.60;99.90;;;;;;5050764;23;20505;-84
2021/03/29 06:25:03;;;;;;;5.30;2.67;;;8.00;99.90;;;;;;5041354;28;20452;-84
2021/03/29 06:27:31;;;;;;;7.00;3.00;;;8.70;99.90;;;;;;5042600;28;20451;-84
2021/03/29 06:30:18;;;;;;;3.60;1.93;;;9.40;99.90;;;;;;5039610;28;20474;-84
2021/03/29 06:33:07;;;;;;;5.70;2.47;;;10.30;96.80;;;;;;5041286;28;20451;-85
2021/03/29 06:35:36;;;;;;;2.23;1.57;;;10.80;95.50;;;;;;5044941;28;20590;-85
2021/03/29 06:38:08;;;;;;;2.30;1.70;;;11.20;93.00;;;;;;5044755;28;20435;-85
2021/03/29 06:40:35;;;;;;;3.47;1.90;;;11.10;92.20;;;;;;5060646;23;20559;-84
2021/03/29 06:43:25;;;;;;;2.57;1.50;;;12.40;91.40;;;;;;5022557;23;20500;-85
2021/03/29 06:45:53;;;;;;;2.50;1.30;;;11.20;91.10;;;;;;4989414;28;20477;-85
2021/03/29 06:48:23;;;;;;;5.03;1.60;;;11.10;90.40;;;;;;4991693;28;20483;-84
2021/03/29 06:51:04;;;;;;;3.50;1.87;;;10.90;91.90;;;;;;4991125;28;20476;-84
2021/03/29 06:53:30;;;;;;;3.77;1.43;;;10.80;90.20;;;;;;4987594;28;20457;-88
2021/03/29 06:56:19;;;;;;;3.93;1.70;;;10.60;90.40;;;;;;4987863;28;20545;-86
2021/03/29 06:58:45;;;;;;;3.83;1.70;;;10.60;90.40;;;;;;4988303;28;20521;-86
2021/03/29 07:01:16;;;;;;;2.30;1.57;;;10.60;90.40;;;;;;4992805;28;20453;-84
2021/03/29 07:03:45;;;;;;;2.40;1.67;;;10.50;90.90;;;;;;4991516;28;20441;-85
2021/03/29 07:06:15;;;;;;;2.30;1.80;;;10.60;91.20;;;;;;4991576;28;21009;-84
2021/03/29 07:08:44;;;;;;;2.00;1.50;;;10.60;90.30;;;;;;4991484;28;20452;-85
2021/03/29 07:11:13;;;;;;;4.03;1.77;;;10.60;90.90;;;;;;4990215;28;20457;-84
2021/03/29 07:13:40;;;;;;;2.90;1.57;;;10.60;90.60;;;;;;4990246;28;20450;-84
2021/03/29 07:16:07;;;;;;;2.20;1.07;;;10.80;91.00;;;;;;4985796;28;20476;-85
2021/03/29 07:18:35;;;;;;;4.63;1.37;;;10.90;90.50;;;;;;4972305;28;20458;-84
2021/03/29 07:21:04;;;;;;;4.20;1.80;;;11.00;90.90;;;;;;4972309;28;20508;-85
2021/03/29 07:23:31;;;;;;;7.07;2.63;;;11.30;90.60;;;;;;4982122;28;20477;-85
2021/03/29 07:25:57;;;;;;;2.77;2.47;;;11.40;90.20;;;;;;4973337;28;20458;-89
2021/03/29 07:28:27;;;;;;;2.93;1.73;;;11.40;89.20;;;;;;4982005;28;20450;-85
2021/03/29 07:30:54;;;;;;;2.63;1.83;;;11.60;89.60;;;;;;4980532;28;20512;-85
2021/03/29 07:33:22;;;;;;;3.17;2.30;;;12.10;88.30;;;;;;4971186;28;20895;-85
2021/03/29 07:35:51;;;;;;;3.03;1.80;;;11.80;98.20;;;;;;4980837;28;21068;-85
2021/03/29 07:38:19;;;;;;;6.13;3.30;;;12.00;88.60;;;;;;5017185;28;20462;-85
2021/03/29 07:40:48;;;;;;;9.60;2.50;;;12.10;87.90;;;;;;4971596;28;20569;-86
2021/03/29 07:43:18;;;;;;;4.87;2.00;;;11.90;87.90;;;;;;4970226;28;20574;-85
2021/03/29 07:45:48;;;;;;;4.63;2.70;;;11.90;97.80;;;;;;4979133;28;20512;-85
2021/03/29 07:48:16;;;;;;;3.20;2.10;;;11.90;88.40;;;;;;4971184;28;20454;-85
2021/03/29 07:50:48;;;;;;;3.80;2.20;;;12.50;97.70;;;;;;4981021;28;20956;-85
2021/03/29 07:53:19;;;;;;;3.60;1.90;;;12.30;87.60;;;;;;4998340;28;20441;-86
2021/03/29 07:55:48;;;;;;;2.97;2.20;;;12.50;88.00;;;;;;4997875;28;20839;-85
2021/03/29 07:58:16;;;;;;;3.23;1.50;;;13.10;95.90;;;;;;4945594;27;20489;-86
2021/03/29 08:00:59;;;;;;;2.63;1.63;;;13.10;86.30;;;;;;5003134;28;20536;-86
2021/03/29 08:03:40;;;;;;;2.77;1.97;;;12.00;96.70;;;;;;5014793;28;20456;-84
2021/03/29 08:06:07;;;;;;;6.20;2.53;;;12.80;87.00;;;;;;5013386;28;20460;-86
2021/03/29 08:08:42;;;;;;;2.90;1.73;;;13.50;85.40;;;;;;5013735;28;20452;-86
2021/03/29 08:11:13;;;;;;;4.03;2.20;;;14.00;83.20;;;;;;5009015;28;20680;-86
2021/03/29 08:13:41;;;;;;;3.07;2.10;;;14.30;81.60;;;;;;5009807;28;20493;-87
2021/03/29 08:16:10;;;;;;;4.90;2.10;;;14.30;82.30;;;;;;5010438;28;20502;-86
2021/03/29 08:19:14;;;;;;;3.77;1.23;;;13.90;80.90;;;;;;5006687;28;20460;-86
2021/03/29 08:21:49;;;;;;;2.60;1.47;;;13.90;80.50;;;;;;5007150;28;20573;-86
2021/03/29 08:24:24;;;;;;;2.90;1.87;;;14.30;92.70;;;;;;5013678;28;20458;-85
2021/03/29 08:26:52;;;;;;;2.17;1.63;;;14.20;80.80;;;;;;5011080;28;20440;-86
2021/03/29 08:29:29;;;;;;;6.47;2.13;;;14.20;80.10;;;;;;5012744;28;20449;-86
2021/03/29 08:32:28;;;;;;;6.00;1.80;;;14.00;93.90;;;;;;5018237;28;20466;-87
2021/03/29 08:34:59;;;;;;;2.40;1.50;;;14.60;93.80;;;;;;5018228;28;20476;-84
2021/03/29 08:37:29;;;;;;;2.23;1.50;;;14.70;94.00;;;;;;4997335;28;20451;-88
2021/03/29 08:39:58;;;;;;;9.13;1.90;;;15.30;93.00;;;;;;5017443;28;20453;-92
2021/03/29 08:42:27;;;;;;;3.00;1.20;;;16.00;87.20;;;;;;5002454;28;20485;-88
2021/03/29 08:44:53;;;;;;;4.40;1.77;;;16.70;92.50;;;;;;4990597;28;20457;-89
2021/03/29 08:47:21;;;;;;;3.30;1.43;;;17.20;90.20;;;;;;5002736;28;20965;-90
2021/03/29 08:49:51;;;;;;;1.77;1.40;;;16.90;84.90;;;;;;5009996;28;20441;-89
2021/03/29 08:52:18;;;;;;;3.63;1.30;;;;;;;;;;4997811;28;20461;-88
2021/03/29 08:55:02;;;;;;;2.53;1.40;;;17.30;80.20;;;;;;4993457;28;20493;-86
2021/03/29 08:57:31;;;;;;;6.23;1.50;;;18.00;64.60;;;;;;4942772;28;20458;-88
2021/03/29 08:59:59;;;;;;;4.37;1.83;;;18.00;63.90;;;;;;4991814;28;20453;-87
2021/03/29 09:02:26;;;;;;;1.40;1.30;;;18.80;87.70;;;;;;4990482;28;20445;-87
2021/03/29 09:04:55;;;;;;;5.00;1.97;;;17.70;83.10;;;;;;4976218;28;20446;-87
2021/03/29 09:07:27;;;;;;;4.47;1.47;;;17.90;63.40;;;;;;4970438;28;20883;-87
2021/03/29 09:09:54;;;;;;;2.27;1.50;;;;;;;;;;4974071;28;20466;-87
2021/03/29 09:12:22;;;;;;;6.07;1.97;;;18.10;63.00;;;;;;4973475;28;20453;-86
2021/03/29 09:14:49;;;;;;;3.70;1.70;;;17.50;74.40;;;;;;4972544;28;20494;-85
2021/03/29 09:17:22;;;;;;;3.33;1.90;;;17.70;88.60;;;;;;4973342;28;21428;-86
2021/03/29 09:19:49;;;;;;;3.00;1.50;;;;;;;;;;4972335;28;20454;-86
2021/03/29 09:22:32;;;;;;;4.53;1.70;;;17.60;81.70;;;;;;4974952;28;20925;-85
2021/03/29 09:24:59;;;;;;;3.37;1.20;;;16.30;63.60;;;;;;4970691;28;20446;-85
2021/03/29 09:27:32;;;;;;;2.90;1.40;;;18.20;81.00;;;;;;4974686;28;20504;-84
2021/03/29 09:30:01;;;;;;;4.23;1.40;;;17.40;69.10;;;;;;4971664;28;20458;-85
2021/03/29 09:32:30;;;;;;;3.20;1.30;;;17.90;79.80;;;;;;4985991;28;20479;-85
2021/03/29 09:34:57;;;;;;;5.00;1.90;;;18.40;80.80;;;;;;4987934;28;20478;-85
2021/03/29 09:37:25;;;;;;;3.80;1.70;;;19.10;60.70;;;;;;4999825;28;20481;-87
2021/03/29 09:39:57;;;;;;;4.00;1.23;;;19.80;77.20;;;;;;5012796;22;20494;-85
2021/03/29 09:42:36;;;;;;;5.27;1.90;;;19.80;79.20;;;;;;5043484;28;20862;-84
2021/03/29 09:45:04;;;;;;;14.63;3.37;;;20.10;58.00;;;;;;4961796;28;20497;-86
2021/03/29 09:47:30;;;;;;;4.40;1.80;;;21.00;75.50;;;;;;4973323;28;20972;-85
2021/03/29 09:49:57;;;;;;;2.60;1.73;;;20.90;66.10;;;;;;4970397;28;20541;-86
2021/03/29 09:52:34;;;;;;;7.47;1.50;;;19.40;55.30;;;;;;4971198;28;21004;-85
2021/03/29 09:55:00;;;;;;;27.37;3.33;;;;;;;;;;4974525;28;20501;-85
2021/03/29 09:57:27;;;;;;;2.30;1.40;;;;;;;;;;4973103;28;20767;-84
2021/03/29 09:59:55;;;;;;;2.80;1.40;;;;;;;;;;4973460;28;20459;-86
2021/03/29 10:02:25;;;;;;;4.17;1.83;;;20.50;70.60;;;;;;4973251;28;20489;-86
2021/03/29 10:05:00;;;;;;;2.90;1.67;;;20.60;74.80;;;;;;4977957;28;20525;-86
2021/03/29 10:07:26;;;;;;;38.67;4.10;;;20.60;67.20;;;;;;4980677;28;20453;-85
2021/03/29 10:09:59;;;;;;;4.57;1.80;;;20.70;66.30;;;;;;4976492;28;20453;-86
2021/03/29 10:12:27;;;;;;;1.97;1.20;;;21.20;74.90;;;;;;4974424;28;20462;-86
2021/03/29 10:15:06;;;;;;;2.97;1.70;;;20.00;54.10;;;;;;4972180;28;20498;-86
2021/03/29 10:17:35;;;;;;;2.30;1.60;;;20.50;53.00;;;;;;4969682;28;20816;-86
2021/03/29 10:20:07;;;;;;;2.23;1.53;;;20.40;56.30;;;;;;4968317;28;20480;-85
2021/03/29 10:22:33;;;;;;;3.40;1.60;;;;;;;;;;4979102;28;20461;-85
2021/03/29 10:25:04;;;;;;;3.23;2.07;;;21.40;73.70;;;;;;4977550;28;20438;-85
2021/03/29 10:27:45;;;;;;;3.90;1.50;;;22.30;72.30;;;;;;4966898;28;20451;-85
2021/03/29 10:30:22;;;;;;;6.83;2.20;;;22.10;47.30;;;;;;4949379;29;20458;-85
2021/03/29 10:32:50;;;;;;;2.57;1.60;;;21.90;70.20;;;;;;4950358;28;20865;-85
2021/03/29 10:35:17;;;;;;;3.50;1.60;;;21.10;49.20;;;;;;4953621;29;20498;-83
2021/03/29 10:37:44;;;;;;;4.47;1.60;;;;;;;;;;4951556;29;20451;-83
2021/03/29 10:40:11;;;;;;;2.97;1.37;;;21.10;67.80;;;;;;4948935;28;20491;-83
2021/03/29 10:42:40;;;;;;;4.23;1.90;;;21.20;61.60;;;;;;4944367;29;20496;-83
2021/03/29 10:45:09;;;;;;;4.80;2.00;;;21.00;47.90;;;;;;4955971;28;20458;-83
2021/03/29 10:47:38;;;;;;;4.60;1.63;;;21.00;70.80;;;;;;4973293;28;20967;-84
2021/03/29 10:50:08;;;;;;;6.07;1.80;;;21.30;66.20;;;;;;4970629;28;20454;-85
2021/03/29 10:52:35;;;;;;;2.80;1.57;;;;;;;;;;4972628;28;20450;-84
2021/03/29 10:55:03;;;;;;;2.07;1.40;;;21.70;45.50;;;;;;4973697;28;20490;-84
2021/03/29 10:57:29;;;;;;;3.20;1.30;;;;;;;;;;4970836;28;20968;-86
2021/03/29 10:59:56;;;;;;;3.87;2.27;;;;;;;;;;4973473;28;20465;-89
2021/03/29 11:02:23;;;;;;;2.40;1.40;;;;;;;;;;4968574;28;20454;-84
2021/03/29 11:04:50;;;;;;;2.73;1.80;;;;;;;;;;4973218;28;20863;-85
2021/03/29 11:07:17;;;;;;;5.80;2.17;;;21.70;70.80;;;;;;4972631;28;20932;-86
2021/03/29 11:09:43;;;;;;;1.70;1.33;;;;;;;;;;4972857;28;20500;-85
2021/03/29 11:12:10;;;;;;;5.43;1.97;;;22.30;58.40;;;;;;4973032;28;20981;-85
2021/03/29 11:14:36;;;;;;;2.50;1.50;;;22.10;71.00;;;;;;4969078;28;20485;-89
2021/03/29 11:17:03;;;;;;;2.30;1.57;;;22.30;49.20;;;;;;4969667;28;20458;-86
2021/03/29 11:19:29;;;;;;;18.90;3.50;;;22.50;54.10;;;;;;4931904;28;20456;-89
2021/03/29 11:21:56;;;;;;;3.40;1.97;;;21.70;69.20;;;;;;4932740;29;20448;-92
2021/03/29 11:24:23;;;;;;;4.27;1.50;;;21.10;45.70;;;;;;4931643;29;20452;-86
2021/03/29 11:26:50;;;;;;;3.90;1.70;;;;;;;;;;4932670;29;20459;-86
2021/03/29 11:29:16;;;;;;;3.00;1.47;;;21.40;61.90;;;;;;4927320;28;20453;-90
2021/03/29 11:31:44;;;;;;;5.57;1.53;;;21.30;61.50;;;;;;4929180;29;20486;-90
2021/03/29 11:34:11;;;;;;;2.63;1.70;;;21.90;47.10;;;;;;4931507;29;20959;-87
2021/03/29 11:36:38;;;;;;;4.30;2.10;;;22.30;54.80;;;;;;4935398;28;20448;-91
2021/03/29 11:39:06;;;;;;;3.80;1.47;;;21.60;48.40;;;;;;4972411;28;20476;-82
2021/03/29 11:41:33;;;;;;;4.87;1.80;;;21.20;46.30;;;;;;4972588;28;20455;-86
2021/03/29 11:44:00;;;;;;;4.00;1.83;;;21.40;63.00;;;;;;4972008;28;20450;-84
2021/03/29 11:46:27;;;;;;;1.90;1.00;;;22.20;65.70;;;;;;4970057;28;20454;-83
2021/03/29 11:48:53;;;;;;;5.47;2.43;;;;;;;;;;4972140;28;20450;-86
2021/03/29 11:51:20;;;;;;;1.90;1.53;;;;;;;;;;4973528;28;20450;-83
2021/03/29 11:53:46;;;;;;;2.40;1.30;;;21.30;56.90;;;;;;4974500;28;20454;-87
2021/03/29 11:56:13;;;;;;;2.70;1.87;;;21.70;65.00;;;;;;4976362;28;20587;-86
2021/03/29 11:58:40;;;;;;;2.97;1.27;;;21.20;48.60;;;;;;4975776;28;20516;-86
2021/03/29 12:01:13;;;;;;;3.50;1.60;;;20.50;59.60;;;;;;4978294;28;20488;-87
2021/03/29 12:03:43;;;;;;;3.73;1.43;;;;;;;;;;4975982;28;20813;-86
2021/03/29 12:06:15;;;;;;;2.20;1.30;;;19.80;64.90;;;;;;4971370;28;20480;-87
2021/03/29 12:08:46;;;;;;;1.93;1.37;;;;;;;;;;4973154;28;20896;-87
2021/03/29 12:13:58;;;;;;;3.13;1.70;;;21.10;48.60;;;;;;4972804;28;20434;-88
2021/03/29 12:16:26;;;;;;;5.60;1.73;;;21.60;72.20;;;;;;4928751;29;20518;-87
2021/03/29 12:18:54;;;;;;;2.63;1.80;;;;;;;;;;4895230;29;20455;-87
2021/03/29 12:21:22;;;;;;;5.57;1.77;;;21.10;56.60;;;;;;4929159;29;20456;-91
2021/03/29 12:23:51;;;;;;;3.90;1.57;;;22.30;49.40;;;;;;4928850;29;21017;-88
2021/03/29 12:26:22;;;;;;;2.83;1.40;;;23.30;50.00;;;;;;4931919;29;20471;-91
2021/03/29 12:28:51;;;;;;;4.13;1.73;;;22.80;71.60;;;;;;4927106;29;20914;-87
2021/03/29 12:31:19;;;;;;;3.43;1.40;;;22.10;55.70;;;;;;4972793;28;20957;-90
2021/03/29 12:33:46;;;;;;;7.10;2.17;;;;;;;;;;4979773;28;20475;-90
2021/03/29 12:36:14;;;;;;;10.10;2.40;;;22.80;50.90;;;;;;5011782;28;20561;-89
2021/03/29 12:38:45;;;;;;;3.17;1.73;;;23.30;58.90;;;;;;5006282;28;21011;-87
2021/03/29 12:41:12;;;;;;;7.07;1.83;;;22.30;68.10;;;;;;5011257;28;20503;-89
2021/03/29 12:43:39;;;;;;;3.43;1.80;;;22.60;74.50;;;;;;5010539;28;20487;-90
2021/03/29 12:46:08;;;;;;;3.17;1.70;;;22.20;48.90;;;;;;5008794;28;20456;-91
2021/03/29 12:48:36;;;;;;;4.57;1.67;;;22.00;49.10;;;;;;5005680;28;20453;-88
2021/03/29 12:51:05;;;;;;;1.67;1.50;;;21.40;47.80;;;;;;4971016;28;20457;-92
2021/03/29 12:53:32;;;;;;;4.00;2.07;;;;;;;;;;4971743;28;20447;-90
2021/03/29 12:56:00;;;;;;;4.80;2.03;;;22.40;53.90;;;;;;4971604;28;20493;-90
2021/03/29 12:58:26;;;;;;;4.57;1.80;;;21.90;62.70;;;;;;4968307;28;20508;-92
2021/03/29 13:00:54;;;;;;;2.67;2.10;;;21.60;65.50;;;;;;4972050;28;20434;-86
2021/03/29 13:03:24;;;;;;;5.33;1.90;;;;;;;;;;4970876;28;20803;-88
2021/03/29 13:05:55;;;;;;;2.73;1.60;;;22.00;49.00;;;;;;4970399;28;20450;-87
2021/03/29 13:08:24;;;;;;;4.67;2.00;;;22.20;48.70;;;;;;4968375;28;20457;-89
2021/03/29 13:13:34;;;;;;;5.40;1.87;;;22.50;56.70;;;;;;4972097;28;20433;-87
2021/03/29 13:16:02;;;;;;;4.00;2.40;;;22.30;62.30;;;;;;4968310;28;20505;-90
2021/03/29 13:18:28;;;;;;;3.23;1.40;;;;;;;;;;4974785;28;20450;-89